PWSweather.com
Personal Weather Stations
Station Observations
SUBOTICARS
SuboticaYU

SuboticaYU

Lat: 46.1296717, Lon: 19.641551

Elevation: 361

Station Type: Nexus

http://sumeteo.info

High Low Average
Temperature 30.4°F-0.9°C 26.4°F-3.1°C 27.7°F-2.4°C
Dew Point 25.5°F-3.6°C 21.3°F-5.9°C 23.3°F-4.8°C
Winds 6.9 mph 11.1 kmh Calm Calm 4.0 mph NE6.4 kmh NE
Wind Gusts 11.5 mph18.5 kmh 1.2 mph1.9 kmh 5.0 mph8.0 kmh
Humidity 87% 75% 83%
Pressure 29.76 in1007.8 mb 29.34 in993.6 mb -
Precipitation 0.21 in5.3 mm - -
Hour Temp Dew Point Humidity Winds Wind Gusts Pressure Precip Precip Rate Daily Precip Total
12:00 AM 28.4°F-2.0°C 21.5°F-5.8°C 75% 1.2 mph NNE1.9 kmh NNE 2.3 mph3.7 kmh 29.76 in1007.8 mb - 0.00 in0.0 mm 0.00 in0.0 mm
12:10 AM 28.4°F-2.0°C 21.5°F-5.8°C 75% 2.3 mph NE3.7 kmh NE 3.5 mph5.6 kmh 29.76 in1007.8 mb - 0.00 in0.0 mm 0.00 in0.0 mm
12:15 AM 28.4°F-2.0°C 21.5°F-5.8°C 75% 2.3 mph ENE3.7 kmh ENE 3.5 mph5.6 kmh 29.76 in1007.8 mb - 0.00 in0.0 mm 0.00 in0.0 mm
12:20 AM 28.4°F-2.0°C 21.5°F-5.8°C 75% 2.3 mph NE3.7 kmh NE 2.3 mph3.7 kmh 29.76 in1007.8 mb - 0.00 in0.0 mm 0.00 in0.0 mm
12:25 AM 28.2°F-2.1°C 21.3°F-5.9°C 75% 2.3 mph NNE3.7 kmh NNE 3.5 mph5.6 kmh 29.76 in1007.8 mb - 0.00 in0.0 mm 0.00 in0.0 mm
12:30 AM 28.2°F-2.1°C 21.3°F-5.9°C 75% 2.3 mph NNE3.7 kmh NNE 3.5 mph5.6 kmh 29.76 in1007.8 mb - 0.00 in0.0 mm 0.00 in0.0 mm
12:35 AM 28.2°F-2.1°C 21.6°F-5.8°C 76% 3.5 mph ENE5.6 kmh ENE 3.5 mph5.6 kmh 29.76 in1007.8 mb - 0.00 in0.0 mm 0.00 in0.0 mm
12:40 AM 28.0°F-2.2°C 21.4°F-5.9°C 76% 2.3 mph N3.7 kmh N 3.5 mph5.6 kmh 29.76 in1007.8 mb - 0.00 in0.0 mm 0.00 in0.0 mm
12:45 AM 28.0°F-2.2°C 21.4°F-5.9°C 76% 2.3 mph NE3.7 kmh NE 2.3 mph3.7 kmh 29.75 in1007.5 mb - 0.00 in0.0 mm 0.00 in0.0 mm
12:50 AM 28.0°F-2.2°C 21.4°F-5.9°C 76% 2.3 mph N3.7 kmh N 2.3 mph3.7 kmh 29.75 in1007.5 mb - 0.00 in0.0 mm 0.00 in0.0 mm
12:55 AM 28.0°F-2.2°C 21.4°F-5.9°C 76% 2.3 mph NNE3.7 kmh NNE 2.3 mph3.7 kmh 29.75 in1007.5 mb - 0.00 in0.0 mm 0.00 in0.0 mm
01:00 AM 27.9°F-2.3°C 21.3°F-5.9°C 76% 2.3 mph NE3.7 kmh NE 3.5 mph5.6 kmh 29.75 in1007.5 mb - 0.00 in0.0 mm 0.00 in0.0 mm
01:10 AM 27.9°F-2.3°C 21.3°F-5.9°C 76% 2.3 mph NE3.7 kmh NE 3.5 mph5.6 kmh 29.75 in1007.5 mb - 0.00 in0.0 mm 0.00 in0.0 mm
01:15 AM 27.9°F-2.3°C 21.9°F-5.6°C 78% 3.5 mph NE5.6 kmh NE 3.5 mph5.6 kmh 29.75 in1007.5 mb - 0.00 in0.0 mm 0.00 in0.0 mm
01:20 AM 27.9°F-2.3°C 21.9°F-5.6°C 78% 3.5 mph ENE5.6 kmh ENE 3.5 mph5.6 kmh 29.75 in1007.5 mb - 0.00 in0.0 mm 0.00 in0.0 mm
01:25 AM 27.9°F-2.3°C 21.9°F-5.6°C 78% 3.5 mph NNE5.6 kmh NNE 4.6 mph7.4 kmh 29.75 in1007.5 mb - 0.00 in0.0 mm 0.00 in0.0 mm
01:30 AM 27.7°F-2.4°C 22.0°F-5.6°C 79% 3.5 mph NE5.6 kmh NE 4.6 mph7.4 kmh 29.75 in1007.5 mb - 0.00 in0.0 mm 0.00 in0.0 mm
01:35 AM 27.7°F-2.4°C 22.0°F-5.6°C 79% 3.5 mph N5.6 kmh N 3.5 mph5.6 kmh 29.75 in1007.5 mb - 0.00 in0.0 mm 0.00 in0.0 mm
01:40 AM 27.6°F-2.4°C 21.9°F-5.6°C 79% 2.3 mph NNE3.7 kmh NNE 2.3 mph3.7 kmh 29.75 in1007.5 mb - 0.00 in0.0 mm 0.00 in0.0 mm
01:45 AM 27.4°F-2.6°C 21.5°F-5.8°C 78% 2.3 mph NE3.7 kmh NE 2.3 mph3.7 kmh 29.74 in1007.1 mb - 0.00 in0.0 mm 0.00 in0.0 mm
01:50 AM 27.5°F-2.5°C 21.8°F-5.7°C 79% 3.5 mph ENE5.6 kmh ENE 4.6 mph7.4 kmh 29.74 in1007.1 mb - 0.00 in0.0 mm 0.00 in0.0 mm
01:55 AM 27.3°F-2.6°C 21.7°F-5.7°C 79% 2.3 mph NNE3.7 kmh NNE 3.5 mph5.6 kmh 29.74 in1007.1 mb - 0.00 in0.0 mm 0.00 in0.0 mm
02:00 AM 27.5°F-2.5°C 21.8°F-5.7°C 79% 2.3 mph NNE3.7 kmh NNE 3.5 mph5.6 kmh 29.74 in1007.1 mb - 0.00 in0.0 mm 0.00 in0.0 mm
02:10 AM 27.3°F-2.6°C 22.0°F-5.6°C 80% 1.2 mph NE1.9 kmh NE 2.3 mph3.7 kmh 29.74 in1007.1 mb - 0.00 in0.0 mm 0.00 in0.0 mm
02:15 AM 27.3°F-2.6°C 22.0°F-5.6°C 80% 2.3 mph NE3.7 kmh NE 3.5 mph5.6 kmh 29.73 in1006.8 mb - 0.00 in0.0 mm 0.00 in0.0 mm
02:20 AM 27.3°F-2.6°C 22.0°F-5.6°C 80% 2.3 mph NNE3.7 kmh NNE 2.3 mph3.7 kmh 29.73 in1006.8 mb - 0.00 in0.0 mm 0.00 in0.0 mm
02:25 AM 27.1°F-2.7°C 21.8°F-5.7°C 80% 3.5 mph NNE5.6 kmh NNE 4.6 mph7.4 kmh 29.73 in1006.8 mb - 0.00 in0.0 mm 0.00 in0.0 mm
02:30 AM 27.1°F-2.7°C 21.8°F-5.7°C 80% 3.5 mph NE5.6 kmh NE 3.5 mph5.6 kmh 29.73 in1006.8 mb - 0.00 in0.0 mm 0.00 in0.0 mm
02:35 AM 27.1°F-2.7°C 21.8°F-5.7°C 80% 2.3 mph NNE3.7 kmh NNE 3.5 mph5.6 kmh 29.73 in1006.8 mb - 0.00 in0.0 mm 0.00 in0.0 mm
02:40 AM 27.0°F-2.8°C 21.6°F-5.8°C 80% 2.3 mph NE3.7 kmh NE 3.5 mph5.6 kmh 29.73 in1006.8 mb - 0.00 in0.0 mm 0.00 in0.0 mm
02:45 AM 27.1°F-2.7°C 21.8°F-5.7°C 80% 1.2 mph ENE1.9 kmh ENE 2.3 mph3.7 kmh 29.72 in1006.4 mb - 0.00 in0.0 mm 0.00 in0.0 mm
02:50 AM 27.0°F-2.8°C 21.6°F-5.8°C 80% 1.2 mph ENE1.9 kmh ENE 2.3 mph3.7 kmh 29.72 in1006.4 mb - 0.00 in0.0 mm 0.00 in0.0 mm
02:55 AM 27.0°F-2.8°C 21.9°F-5.6°C 81% 1.2 mph ENE1.9 kmh ENE 3.5 mph5.6 kmh 29.72 in1006.4 mb - 0.00 in0.0 mm 0.00 in0.0 mm
03:00 AM 27.0°F-2.8°C 21.9°F-5.6°C 81% 2.3 mph NNE3.7 kmh NNE 2.3 mph3.7 kmh 29.72 in1006.4 mb - 0.01 in0.3 mm 0.01 in0.3 mm
03:10 AM 27.0°F-2.8°C 21.9°F-5.6°C 81% 3.5 mph NE5.6 kmh NE 4.6 mph7.4 kmh 29.72 in1006.4 mb - 0.01 in0.3 mm 0.01 in0.3 mm
03:15 AM 27.0°F-2.8°C 21.9°F-5.6°C 81% 4.6 mph NNE7.4 kmh NNE 5.8 mph9.3 kmh 29.72 in1006.4 mb - 0.01 in0.3 mm 0.01 in0.3 mm
03:20 AM 27.0°F-2.8°C 22.2°F-5.4°C 82% 3.5 mph NE5.6 kmh NE 3.5 mph5.6 kmh 29.72 in1006.4 mb - 0.01 in0.3 mm 0.01 in0.3 mm
03:25 AM 27.0°F-2.8°C 22.2°F-5.4°C 82% 3.5 mph NE5.6 kmh NE 3.5 mph5.6 kmh 29.72 in1006.4 mb - 0.01 in0.3 mm 0.01 in0.3 mm
03:30 AM 26.8°F-2.9°C 22.0°F-5.6°C 82% 2.3 mph NE3.7 kmh NE 3.5 mph5.6 kmh 29.71 in1006.1 mb - 0.01 in0.3 mm 0.01 in0.3 mm
03:35 AM 26.8°F-2.9°C 22.0°F-5.6°C 82% 3.5 mph NNE5.6 kmh NNE 4.6 mph7.4 kmh 29.71 in1006.1 mb - 0.02 in0.5 mm 0.02 in0.5 mm
03:40 AM 26.8°F-2.9°C 22.0°F-5.6°C 82% 3.5 mph NE5.6 kmh NE 4.6 mph7.4 kmh 29.71 in1006.1 mb - 0.02 in0.5 mm 0.02 in0.5 mm
03:45 AM 26.9°F-2.8°C 22.2°F-5.4°C 82% 3.5 mph ENE5.6 kmh ENE 3.5 mph5.6 kmh 29.70 in1005.8 mb - 0.02 in0.5 mm 0.02 in0.5 mm
03:50 AM 26.8°F-2.9°C 22.0°F-5.6°C 82% 2.3 mph NNE3.7 kmh NNE 2.3 mph3.7 kmh 29.70 in1005.8 mb - 0.02 in0.5 mm 0.02 in0.5 mm
03:55 AM 26.8°F-2.9°C 22.0°F-5.6°C 82% 3.5 mph ENE5.6 kmh ENE 3.5 mph5.6 kmh 29.70 in1005.8 mb - 0.02 in0.5 mm 0.02 in0.5 mm
04:00 AM 26.8°F-2.9°C 22.0°F-5.6°C 82% 1.2 mph NNE1.9 kmh NNE 2.3 mph3.7 kmh 29.70 in1005.8 mb - 0.01 in0.3 mm 0.02 in0.5 mm
04:10 AM 26.8°F-2.9°C 22.0°F-5.6°C 82% 2.3 mph NNE3.7 kmh NNE 2.3 mph3.7 kmh 29.70 in1005.8 mb - 0.01 in0.3 mm 0.02 in0.5 mm
04:15 AM 26.8°F-2.9°C 22.0°F-5.6°C 82% 1.2 mph NE1.9 kmh NE 2.3 mph3.7 kmh 29.70 in1005.8 mb - 0.01 in0.3 mm 0.02 in0.5 mm
04:20 AM 26.8°F-2.9°C 22.0°F-5.6°C 82% 1.2 mph NNE1.9 kmh NNE 2.3 mph3.7 kmh 29.70 in1005.8 mb - 0.01 in0.3 mm 0.02 in0.5 mm
04:25 AM 26.8°F-2.9°C 22.0°F-5.6°C 82% 2.3 mph NE3.7 kmh NE 3.5 mph5.6 kmh 29.70 in1005.8 mb - 0.02 in0.5 mm 0.03 in0.8 mm
04:30 AM 26.8°F-2.9°C 22.0°F-5.6°C 82% 2.3 mph ENE3.7 kmh ENE 3.5 mph5.6 kmh 29.70 in1005.8 mb - 0.02 in0.5 mm 0.03 in0.8 mm
04:35 AM 26.8°F-2.9°C 22.0°F-5.6°C 82% 2.3 mph NNE3.7 kmh NNE 2.3 mph3.7 kmh 29.70 in1005.8 mb - 0.01 in0.3 mm 0.03 in0.8 mm
04:40 AM 26.8°F-2.9°C 22.0°F-5.6°C 82% 1.2 mph NNE1.9 kmh NNE 2.3 mph3.7 kmh 29.70 in1005.8 mb - 0.01 in0.3 mm 0.03 in0.8 mm
04:45 AM 26.8°F-2.9°C 22.0°F-5.6°C 82% 2.3 mph NNE3.7 kmh NNE 2.3 mph3.7 kmh 29.69 in1005.4 mb - 0.01 in0.3 mm 0.03 in0.8 mm
04:50 AM 26.8°F-2.9°C 22.0°F-5.6°C 82% 2.3 mph NNE3.7 kmh NNE 3.5 mph5.6 kmh 29.69 in1005.4 mb - 0.01 in0.3 mm 0.03 in0.8 mm
04:55 AM 26.8°F-2.9°C 22.0°F-5.6°C 82% Calm Calm 1.2 mph1.9 kmh 29.69 in1005.4 mb - 0.02 in0.5 mm 0.04 in1.0 mm
05:00 AM 26.8°F-2.9°C 22.0°F-5.6°C 82% 2.3 mph NNE3.7 kmh NNE 2.3 mph3.7 kmh 29.69 in1005.4 mb - 0.02 in0.5 mm 0.04 in1.0 mm
05:10 AM 26.6°F-3.0°C 22.1°F-5.5°C 83% 2.3 mph NNE3.7 kmh NNE 3.5 mph5.6 kmh 29.69 in1005.4 mb - 0.02 in0.5 mm 0.04 in1.0 mm
05:15 AM 26.6°F-3.0°C 22.1°F-5.5°C 83% 2.3 mph NNE3.7 kmh NNE 3.5 mph5.6 kmh 29.69 in1005.4 mb - 0.02 in0.5 mm 0.04 in1.0 mm
05:20 AM 26.6°F-3.0°C 22.4°F-5.3°C 84% 3.5 mph NNE5.6 kmh NNE 2.3 mph3.7 kmh 29.69 in1005.4 mb - 0.02 in0.5 mm 0.04 in1.0 mm
05:25 AM 26.6°F-3.0°C 22.4°F-5.3°C 84% 1.2 mph NNE1.9 kmh NNE 2.3 mph3.7 kmh 29.69 in1005.4 mb - 0.01 in0.3 mm 0.04 in1.0 mm
05:30 AM 26.6°F-3.0°C 22.4°F-5.3°C 84% 3.5 mph NNE5.6 kmh NNE 3.5 mph5.6 kmh 29.68 in1005.1 mb - 0.01 in0.3 mm 0.04 in1.0 mm
05:35 AM 26.4°F-3.1°C 22.8°F-5.1°C 86% 2.3 mph NNE3.7 kmh NNE 3.5 mph5.6 kmh 29.68 in1005.1 mb - 0.02 in0.5 mm 0.05 in1.3 mm
05:40 AM 26.5°F-3.1°C 22.9°F-5.1°C 86% 2.3 mph NNE3.7 kmh NNE 3.5 mph5.6 kmh 29.68 in1005.1 mb - 0.02 in0.5 mm 0.05 in1.3 mm
05:45 AM 26.6°F-3.0°C 23.0°F-5.0°C 86% 3.5 mph NNE5.6 kmh NNE 4.6 mph7.4 kmh 29.68 in1005.1 mb - 0.02 in0.5 mm 0.05 in1.3 mm
05:50 AM 26.4°F-3.1°C 22.8°F-5.1°C 86% 2.3 mph NNE3.7 kmh NNE 3.5 mph5.6 kmh 29.68 in1005.1 mb - 0.02 in0.5 mm 0.05 in1.3 mm
05:55 AM 26.4°F-3.1°C 22.8°F-5.1°C 86% 3.5 mph NNE5.6 kmh NNE 3.5 mph5.6 kmh 29.68 in1005.1 mb - 0.01 in0.3 mm 0.05 in1.3 mm
06:00 AM 26.4°F-3.1°C 22.8°F-5.1°C 86% 3.5 mph NNE5.6 kmh NNE 3.5 mph5.6 kmh 29.67 in1004.7 mb - 0.01 in0.3 mm 0.05 in1.3 mm
06:10 AM 26.4°F-3.1°C 22.8°F-5.1°C 86% 2.3 mph NNE3.7 kmh NNE 3.5 mph5.6 kmh 29.67 in1004.7 mb - 0.01 in0.3 mm 0.05 in1.3 mm
06:15 AM 26.4°F-3.1°C 22.8°F-5.1°C 86% 3.5 mph NNE5.6 kmh NNE 4.6 mph7.4 kmh 29.67 in1004.7 mb - 0.01 in0.3 mm 0.05 in1.3 mm
06:20 AM 26.4°F-3.1°C 22.8°F-5.1°C 86% 3.5 mph NNE5.6 kmh NNE 3.5 mph5.6 kmh 29.67 in1004.7 mb - 0.01 in0.3 mm 0.05 in1.3 mm
06:25 AM 26.4°F-3.1°C 22.8°F-5.1°C 86% 3.5 mph NNE5.6 kmh NNE 4.6 mph7.4 kmh 29.67 in1004.7 mb - 0.01 in0.3 mm 0.05 in1.3 mm
06:30 AM 26.4°F-3.1°C 22.8°F-5.1°C 86% 2.3 mph NNE3.7 kmh NNE 3.5 mph5.6 kmh 29.67 in1004.7 mb - 0.02 in0.5 mm 0.06 in1.5 mm
06:35 AM 26.4°F-3.1°C 22.5°F-5.3°C 85% 2.3 mph NNE3.7 kmh NNE 2.3 mph3.7 kmh 29.67 in1004.7 mb - 0.02 in0.5 mm 0.06 in1.5 mm
06:40 AM 26.4°F-3.1°C 22.2°F-5.4°C 84% 3.5 mph NNE5.6 kmh NNE 3.5 mph5.6 kmh 29.67 in1004.7 mb - 0.01 in0.3 mm 0.06 in1.5 mm
06:45 AM 26.4°F-3.1°C 22.2°F-5.4°C 84% 3.5 mph NNE5.6 kmh NNE 3.5 mph5.6 kmh 29.66 in1004.4 mb - 0.01 in0.3 mm 0.06 in1.5 mm
06:50 AM 26.6°F-3.0°C 22.4°F-5.3°C 84% 2.3 mph NNE3.7 kmh NNE 4.6 mph7.4 kmh 29.66 in1004.4 mb - 0.01 in0.3 mm 0.06 in1.5 mm
06:55 AM 26.4°F-3.1°C 22.2°F-5.4°C 84% 4.6 mph NNE7.4 kmh NNE 4.6 mph7.4 kmh 29.66 in1004.4 mb - 0.01 in0.3 mm 0.06 in1.5 mm
07:00 AM 26.4°F-3.1°C 22.2°F-5.4°C 84% 3.5 mph NNE5.6 kmh NNE 3.5 mph5.6 kmh 29.66 in1004.4 mb - 0.01 in0.3 mm 0.06 in1.5 mm
07:10 AM 26.4°F-3.1°C 22.2°F-5.4°C 84% 3.5 mph NNE5.6 kmh NNE 4.6 mph7.4 kmh 29.66 in1004.4 mb - 0.01 in0.3 mm 0.06 in1.5 mm
07:15 AM 26.4°F-3.1°C 22.2°F-5.4°C 84% 3.5 mph NNE5.6 kmh NNE 4.6 mph7.4 kmh 29.66 in1004.4 mb - 0.01 in0.3 mm 0.06 in1.5 mm
07:20 AM 26.4°F-3.1°C 22.2°F-5.4°C 84% 3.5 mph NNE5.6 kmh NNE 3.5 mph5.6 kmh 29.66 in1004.4 mb - 0.01 in0.3 mm 0.06 in1.5 mm
07:25 AM 26.6°F-3.0°C 22.4°F-5.3°C 84% 2.3 mph NNE3.7 kmh NNE 3.5 mph5.6 kmh 29.66 in1004.4 mb - 0.01 in0.3 mm 0.06 in1.5 mm
07:30 AM 26.4°F-3.1°C 22.2°F-5.4°C 84% 2.3 mph NNE3.7 kmh NNE 3.5 mph5.6 kmh 29.66 in1004.4 mb - 0.01 in0.3 mm 0.06 in1.5 mm
07:35 AM 26.6°F-3.0°C 22.4°F-5.3°C 84% 3.5 mph NNE5.6 kmh NNE 2.3 mph3.7 kmh 29.66 in1004.4 mb - 0.01 in0.3 mm 0.07 in1.8 mm
07:40 AM 26.6°F-3.0°C 22.4°F-5.3°C 84% 4.6 mph NNE7.4 kmh NNE 3.5 mph5.6 kmh 29.66 in1004.4 mb - 0.01 in0.3 mm 0.07 in1.8 mm
07:45 AM 26.6°F-3.0°C 22.4°F-5.3°C 84% 4.6 mph NNE7.4 kmh NNE 6.9 mph11.1 kmh 29.65 in1004.1 mb - 0.01 in0.3 mm 0.07 in1.8 mm
07:50 AM 26.6°F-3.0°C 22.4°F-5.3°C 84% 3.5 mph NE5.6 kmh NE 3.5 mph5.6 kmh 29.65 in1004.1 mb - 0.01 in0.3 mm 0.07 in1.8 mm
07:55 AM 26.6°F-3.0°C 22.4°F-5.3°C 84% 2.3 mph NNE3.7 kmh NNE 3.5 mph5.6 kmh 29.65 in1004.1 mb - 0.01 in0.3 mm 0.07 in1.8 mm
08:00 AM 26.6°F-3.0°C 22.1°F-5.5°C 83% 2.3 mph NE3.7 kmh NE 3.5 mph5.6 kmh 29.64 in1003.7 mb - 0.01 in0.3 mm 0.07 in1.8 mm
08:10 AM 26.6°F-3.0°C 22.2°F-5.4°C 83% 3.5 mph NNW5.6 kmh NNW 5.8 mph9.3 kmh 29.64 in1003.7 mb - 0.01 in0.3 mm 0.07 in1.8 mm
08:15 AM 26.8°F-2.9°C 22.3°F-5.4°C 83% 3.5 mph NE5.6 kmh NE 4.6 mph7.4 kmh 29.64 in1003.7 mb - 0.01 in0.3 mm 0.07 in1.8 mm
08:20 AM 26.8°F-2.9°C 22.3°F-5.4°C 83% 3.5 mph ENE5.6 kmh ENE 3.5 mph5.6 kmh 29.64 in1003.7 mb - 0.02 in0.5 mm 0.08 in2.0 mm
08:25 AM 26.8°F-2.9°C 22.3°F-5.4°C 83% 3.5 mph NE5.6 kmh NE 4.6 mph7.4 kmh 29.64 in1003.7 mb - 0.02 in0.5 mm 0.08 in2.0 mm
08:30 AM 26.8°F-2.9°C 22.3°F-5.4°C 83% 3.5 mph NNE5.6 kmh NNE 4.6 mph7.4 kmh 29.65 in1004.1 mb - 0.02 in0.5 mm 0.08 in2.0 mm
08:35 AM 27.0°F-2.8°C 22.5°F-5.3°C 83% 3.5 mph NE5.6 kmh NE 5.8 mph9.3 kmh 29.65 in1004.1 mb - 0.01 in0.3 mm 0.08 in2.0 mm
08:40 AM 27.0°F-2.8°C 22.5°F-5.3°C 83% 2.3 mph N3.7 kmh N 3.5 mph5.6 kmh 29.65 in1004.1 mb - 0.01 in0.3 mm 0.08 in2.0 mm
08:45 AM 27.1°F-2.7°C 22.7°F-5.2°C 83% 4.6 mph ENE7.4 kmh ENE 4.6 mph7.4 kmh 29.64 in1003.7 mb - 0.01 in0.3 mm 0.08 in2.0 mm
08:50 AM 27.1°F-2.7°C 22.7°F-5.2°C 83% 3.5 mph NE5.6 kmh NE 3.5 mph5.6 kmh 29.64 in1003.7 mb - 0.01 in0.3 mm 0.08 in2.0 mm
08:55 AM 27.3°F-2.6°C 22.8°F-5.1°C 83% 2.3 mph NE3.7 kmh NE 3.5 mph5.6 kmh 29.64 in1003.7 mb - 0.01 in0.3 mm 0.08 in2.0 mm
09:00 AM 27.3°F-2.6°C 22.8°F-5.1°C 83% 4.6 mph NNE7.4 kmh NNE 5.8 mph9.3 kmh 29.64 in1003.7 mb - 0.01 in0.3 mm 0.08 in2.0 mm
09:10 AM 27.5°F-2.5°C 23.0°F-5.0°C 83% 3.5 mph NNE5.6 kmh NNE 3.5 mph5.6 kmh 29.64 in1003.7 mb - 0.02 in0.5 mm 0.09 in2.3 mm
09:15 AM 27.5°F-2.5°C 23.0°F-5.0°C 83% 3.5 mph NNE5.6 kmh NNE 4.6 mph7.4 kmh 29.64 in1003.7 mb - 0.02 in0.5 mm 0.09 in2.3 mm
09:20 AM 27.7°F-2.4°C 23.2°F-4.9°C 83% 3.5 mph NNE5.6 kmh NNE 3.5 mph5.6 kmh 29.64 in1003.7 mb - 0.01 in0.3 mm 0.09 in2.3 mm
09:25 AM 27.9°F-2.3°C 23.4°F-4.8°C 83% 3.5 mph NE5.6 kmh NE 3.5 mph5.6 kmh 29.64 in1003.7 mb - 0.01 in0.3 mm 0.09 in2.3 mm
09:30 AM 27.9°F-2.3°C 23.4°F-4.8°C 83% 2.3 mph NNE3.7 kmh NNE 3.5 mph5.6 kmh 29.63 in1003.4 mb - 0.01 in0.3 mm 0.09 in2.3 mm
09:35 AM 27.9°F-2.3°C 23.4°F-4.8°C 83% 4.6 mph ENE7.4 kmh ENE 5.8 mph9.3 kmh 29.63 in1003.4 mb - 0.02 in0.5 mm 0.10 in2.5 mm
09:40 AM 27.9°F-2.3°C 23.1°F-4.9°C 82% 3.5 mph NNE5.6 kmh NNE 3.5 mph5.6 kmh 29.63 in1003.4 mb - 0.02 in0.5 mm 0.10 in2.5 mm
09:45 AM 28.0°F-2.2°C 23.3°F-4.8°C 82% 4.6 mph NNE7.4 kmh NNE 4.6 mph7.4 kmh 29.63 in1003.4 mb - 0.02 in0.5 mm 0.10 in2.5 mm
09:50 AM 28.0°F-2.2°C 23.5°F-4.7°C 83% 4.6 mph NE7.4 kmh NE 4.6 mph7.4 kmh 29.63 in1003.4 mb - 0.02 in0.5 mm 0.10 in2.5 mm
09:55 AM 28.0°F-2.2°C 23.5°F-4.7°C 83% 5.8 mph NE9.3 kmh NE 6.9 mph11.1 kmh 29.63 in1003.4 mb - 0.02 in0.5 mm 0.10 in2.5 mm
10:00 AM 28.2°F-2.1°C 23.7°F-4.6°C 83% 3.5 mph NNE5.6 kmh NNE 3.5 mph5.6 kmh 29.63 in1003.4 mb - 0.02 in0.5 mm 0.10 in2.5 mm
10:10 AM 28.4°F-2.0°C 23.9°F-4.5°C 83% 2.3 mph NE3.7 kmh NE 5.8 mph9.3 kmh 29.63 in1003.4 mb - 0.02 in0.5 mm 0.11 in2.8 mm
10:15 AM 28.4°F-2.0°C 23.6°F-4.7°C 82% 2.3 mph NNE3.7 kmh NNE 2.3 mph3.7 kmh 29.63 in1003.4 mb - 0.02 in0.5 mm 0.11 in2.8 mm
10:20 AM 28.6°F-1.9°C 23.8°F-4.6°C 82% 3.5 mph ENE5.6 kmh ENE 5.8 mph9.3 kmh 29.63 in1003.4 mb - 0.02 in0.5 mm 0.11 in2.8 mm
10:25 AM 28.6°F-1.9°C 23.8°F-4.6°C 82% 4.6 mph NE7.4 kmh NE 5.8 mph9.3 kmh 29.63 in1003.4 mb - 0.02 in0.5 mm 0.11 in2.8 mm
10:30 AM 28.7°F-1.8°C 23.9°F-4.5°C 82% 4.6 mph NNE7.4 kmh NNE 5.8 mph9.3 kmh 29.62 in1003.0 mb - 0.02 in0.5 mm 0.11 in2.8 mm
10:35 AM 28.8°F-1.8°C 24.0°F-4.4°C 82% 4.6 mph ENE7.4 kmh ENE 4.6 mph7.4 kmh 29.62 in1003.0 mb - 0.01 in0.3 mm 0.11 in2.8 mm
10:40 AM 28.9°F-1.7°C 24.1°F-4.4°C 82% 3.5 mph NE5.6 kmh NE 6.9 mph11.1 kmh 29.62 in1003.0 mb - 0.01 in0.3 mm 0.11 in2.8 mm
10:45 AM 29.1°F-1.6°C 24.3°F-4.3°C 82% 3.5 mph ENE5.6 kmh ENE 5.8 mph9.3 kmh 29.62 in1003.0 mb - 0.01 in0.3 mm 0.11 in2.8 mm
10:50 AM 29.3°F-1.5°C 24.5°F-4.2°C 82% 4.6 mph ENE7.4 kmh ENE 4.6 mph7.4 kmh 29.62 in1003.0 mb - 0.01 in0.3 mm 0.11 in2.8 mm
10:55 AM 29.5°F-1.4°C 24.7°F-4.1°C 82% 4.6 mph NE7.4 kmh NE 5.8 mph9.3 kmh 29.62 in1003.0 mb - 0.01 in0.3 mm 0.11 in2.8 mm
11:00 AM 29.3°F-1.5°C 24.5°F-4.2°C 82% 4.6 mph NE7.4 kmh NE 4.6 mph7.4 kmh 29.61 in1002.7 mb - 0.02 in0.5 mm 0.12 in3.0 mm
11:10 AM 29.5°F-1.4°C 24.7°F-4.1°C 82% 4.6 mph NE7.4 kmh NE 4.6 mph7.4 kmh 29.61 in1002.7 mb - 0.01 in0.3 mm 0.12 in3.0 mm
11:15 AM 29.8°F-1.2°C 25.0°F-3.9°C 82% 4.6 mph NE7.4 kmh NE 8.1 mph13.0 kmh 29.60 in1002.4 mb - 0.01 in0.3 mm 0.12 in3.0 mm
11:20 AM 29.7°F-1.3°C 24.8°F-4.0°C 82% 5.8 mph ENE9.3 kmh ENE 8.1 mph13.0 kmh 29.60 in1002.4 mb - 0.01 in0.3 mm 0.12 in3.0 mm
11:25 AM 29.7°F-1.3°C 24.8°F-4.0°C 82% 4.6 mph NE7.4 kmh NE 3.5 mph5.6 kmh 29.60 in1002.4 mb - 0.01 in0.3 mm 0.12 in3.0 mm
11:30 AM 29.7°F-1.3°C 24.8°F-4.0°C 82% 4.6 mph NE7.4 kmh NE 5.8 mph9.3 kmh 29.59 in1002.0 mb - 0.01 in0.3 mm 0.12 in3.0 mm
11:35 AM 29.7°F-1.3°C 24.9°F-3.9°C 82% 4.6 mph NE7.4 kmh NE 5.8 mph9.3 kmh 29.59 in1002.0 mb - 0.01 in0.3 mm 0.12 in3.0 mm
11:40 AM 29.8°F-1.2°C 25.0°F-3.9°C 82% 4.6 mph NE7.4 kmh NE 4.6 mph7.4 kmh 29.59 in1002.0 mb - 0.01 in0.3 mm 0.12 in3.0 mm
11:45 AM 29.8°F-1.2°C 25.0°F-3.9°C 82% 4.6 mph ENE7.4 kmh ENE 5.8 mph9.3 kmh 29.59 in1002.0 mb - 0.01 in0.3 mm 0.12 in3.0 mm
11:50 AM 29.7°F-1.3°C 24.8°F-4.0°C 82% 3.5 mph NE5.6 kmh NE 3.5 mph5.6 kmh 29.59 in1002.0 mb - 0.01 in0.3 mm 0.12 in3.0 mm
11:55 AM 29.8°F-1.2°C 25.0°F-3.9°C 82% 4.6 mph ENE7.4 kmh ENE 4.6 mph7.4 kmh 29.59 in1002.0 mb - 0.01 in0.3 mm 0.12 in3.0 mm
12:00 PM 29.9°F-1.2°C 25.1°F-3.8°C 82% 3.5 mph NE5.6 kmh NE 3.5 mph5.6 kmh 29.58 in1001.7 mb - 0.00 in0.0 mm 0.12 in3.0 mm
12:10 PM 29.8°F-1.2°C 24.7°F-4.1°C 81% 5.8 mph ENE9.3 kmh ENE 5.8 mph9.3 kmh 29.58 in1001.7 mb - 0.00 in0.0 mm 0.12 in3.0 mm
12:15 PM 29.8°F-1.2°C 24.7°F-4.1°C 81% 4.6 mph N7.4 kmh N 6.9 mph11.1 kmh 29.58 in1001.7 mb - 0.01 in0.3 mm 0.13 in3.3 mm
12:20 PM 29.8°F-1.2°C 24.7°F-4.1°C 81% 5.8 mph NE9.3 kmh NE 6.9 mph11.1 kmh 29.58 in1001.7 mb - 0.01 in0.3 mm 0.13 in3.3 mm
12:25 PM 30.0°F-1.1°C 24.9°F-3.9°C 81% 2.3 mph NE3.7 kmh NE 4.6 mph7.4 kmh 29.58 in1001.7 mb - 0.01 in0.3 mm 0.13 in3.3 mm
12:30 PM 30.2°F-1.0°C 25.1°F-3.8°C 81% 4.6 mph NE7.4 kmh NE 3.5 mph5.6 kmh 29.57 in1001.4 mb - 0.01 in0.3 mm 0.13 in3.3 mm
12:35 PM 30.4°F-0.9°C 25.5°F-3.6°C 82% 4.6 mph NE7.4 kmh NE 3.5 mph5.6 kmh 29.57 in1001.4 mb - 0.01 in0.3 mm 0.13 in3.3 mm
12:40 PM 29.8°F-1.2°C 24.7°F-4.1°C 81% 3.5 mph ENE5.6 kmh ENE 5.8 mph9.3 kmh 29.57 in1001.4 mb - 0.01 in0.3 mm 0.13 in3.3 mm
12:45 PM 30.0°F-1.1°C 25.2°F-3.8°C 82% 4.6 mph NNE7.4 kmh NNE 5.8 mph9.3 kmh 29.56 in1001.0 mb - 0.01 in0.3 mm 0.13 in3.3 mm
12:50 PM 30.0°F-1.1°C 25.2°F-3.8°C 82% 6.9 mph NNE11.1 kmh NNE 8.1 mph13.0 kmh 29.56 in1001.0 mb - 0.01 in0.3 mm 0.13 in3.3 mm
12:55 PM 30.0°F-1.1°C 25.2°F-3.8°C 82% 4.6 mph NE7.4 kmh NE 5.8 mph9.3 kmh 29.56 in1001.0 mb - 0.01 in0.3 mm 0.13 in3.3 mm
01:00 PM 30.0°F-1.1°C 25.2°F-3.8°C 82% 4.6 mph ENE7.4 kmh ENE 6.9 mph11.1 kmh 29.56 in1001.0 mb - 0.01 in0.3 mm 0.13 in3.3 mm
01:10 PM 30.0°F-1.1°C 25.2°F-3.8°C 82% 3.5 mph NE5.6 kmh NE 6.9 mph11.1 kmh 29.56 in1001.0 mb - 0.01 in0.3 mm 0.13 in3.3 mm
01:15 PM 30.0°F-1.1°C 25.2°F-3.8°C 82% 5.8 mph NE9.3 kmh NE 6.9 mph11.1 kmh 29.55 in1000.7 mb - 0.01 in0.3 mm 0.14 in3.6 mm
01:20 PM 30.0°F-1.1°C 25.2°F-3.8°C 82% 4.6 mph ENE7.4 kmh ENE 8.1 mph13.0 kmh 29.55 in1000.7 mb - 0.01 in0.3 mm 0.14 in3.6 mm
01:25 PM 30.0°F-1.1°C 25.2°F-3.8°C 82% 4.6 mph NE7.4 kmh NE 6.9 mph11.1 kmh 29.55 in1000.7 mb - 0.01 in0.3 mm 0.14 in3.6 mm
01:30 PM 30.0°F-1.1°C 25.2°F-3.8°C 82% 4.6 mph NNE7.4 kmh NNE 4.6 mph7.4 kmh 29.54 in1000.3 mb - 0.01 in0.3 mm 0.14 in3.6 mm
01:35 PM 29.8°F-1.2°C 25.0°F-3.9°C 82% 5.8 mph NNE9.3 kmh NNE 5.8 mph9.3 kmh 29.54 in1000.3 mb - 0.01 in0.3 mm 0.14 in3.6 mm
01:40 PM 29.8°F-1.2°C 25.0°F-3.9°C 82% 5.8 mph NE9.3 kmh NE 6.9 mph11.1 kmh 29.54 in1000.3 mb - 0.01 in0.3 mm 0.14 in3.6 mm
01:45 PM 29.8°F-1.2°C 25.0°F-3.9°C 82% 3.5 mph E5.6 kmh E 3.5 mph5.6 kmh 29.54 in1000.3 mb - 0.01 in0.3 mm 0.14 in3.6 mm
01:50 PM 29.8°F-1.2°C 25.0°F-3.9°C 82% 5.8 mph ENE9.3 kmh ENE 4.6 mph7.4 kmh 29.54 in1000.3 mb - 0.01 in0.3 mm 0.14 in3.6 mm
01:55 PM 29.7°F-1.3°C 24.8°F-4.0°C 82% 5.8 mph NNE9.3 kmh NNE 5.8 mph9.3 kmh 29.54 in1000.3 mb - 0.01 in0.3 mm 0.14 in3.6 mm
02:00 PM 29.5°F-1.4°C 24.7°F-4.1°C 82% 4.6 mph NNE7.4 kmh NNE 6.9 mph11.1 kmh 29.53 in1000.0 mb - 0.01 in0.3 mm 0.14 in3.6 mm
02:10 PM 29.5°F-1.4°C 24.7°F-4.1°C 82% 4.6 mph NE7.4 kmh NE 5.8 mph9.3 kmh 29.53 in1000.0 mb - 0.01 in0.3 mm 0.14 in3.6 mm
02:15 PM 29.5°F-1.4°C 24.7°F-4.1°C 82% 3.5 mph NNE5.6 kmh NNE 6.9 mph11.1 kmh 29.52 in999.7 mb - 0.00 in0.0 mm 0.14 in3.6 mm
02:20 PM 29.5°F-1.4°C 24.7°F-4.1°C 82% 4.6 mph NE7.4 kmh NE 5.8 mph9.3 kmh 29.52 in999.7 mb - 0.00 in0.0 mm 0.14 in3.6 mm
02:25 PM 29.2°F-1.6°C 24.4°F-4.2°C 82% 4.6 mph ENE7.4 kmh ENE 6.9 mph11.1 kmh 29.52 in999.7 mb - 0.00 in0.0 mm 0.14 in3.6 mm
02:30 PM 29.1°F-1.6°C 24.3°F-4.3°C 82% 6.9 mph NE11.1 kmh NE 3.5 mph5.6 kmh 29.52 in999.7 mb - 0.00 in0.0 mm 0.14 in3.6 mm
02:35 PM 29.0°F-1.7°C 24.2°F-4.3°C 82% 3.5 mph ENE5.6 kmh ENE 3.5 mph5.6 kmh 29.52 in999.7 mb - 0.00 in0.0 mm 0.14 in3.6 mm
02:40 PM 29.1°F-1.6°C 24.3°F-4.3°C 82% 3.5 mph NE5.6 kmh NE 4.6 mph7.4 kmh 29.52 in999.7 mb - 0.00 in0.0 mm 0.14 in3.6 mm
02:45 PM 28.9°F-1.7°C 24.1°F-4.4°C 82% 3.5 mph NE5.6 kmh NE 4.6 mph7.4 kmh 29.52 in999.7 mb - 0.01 in0.3 mm 0.15 in3.8 mm
02:50 PM 28.9°F-1.7°C 24.1°F-4.4°C 82% 3.5 mph NNE5.6 kmh NNE 5.8 mph9.3 kmh 29.52 in999.7 mb - 0.01 in0.3 mm 0.15 in3.8 mm
02:55 PM 28.8°F-1.8°C 24.0°F-4.4°C 82% 3.5 mph ENE5.6 kmh ENE 3.5 mph5.6 kmh 29.52 in999.7 mb - 0.01 in0.3 mm 0.15 in3.8 mm
03:00 PM 28.8°F-1.8°C 24.0°F-4.4°C 82% 4.6 mph NE7.4 kmh NE 8.1 mph13.0 kmh 29.52 in999.7 mb - 0.01 in0.3 mm 0.15 in3.8 mm
03:10 PM 28.6°F-1.9°C 23.8°F-4.6°C 82% 6.9 mph NE11.1 kmh NE 9.2 mph14.8 kmh 29.52 in999.7 mb - 0.01 in0.3 mm 0.15 in3.8 mm
03:15 PM 28.4°F-2.0°C 23.6°F-4.7°C 82% 4.6 mph NE7.4 kmh NE 6.9 mph11.1 kmh 29.50 in999.0 mb - 0.01 in0.3 mm 0.15 in3.8 mm
03:20 PM 28.4°F-2.0°C 23.6°F-4.7°C 82% 5.8 mph E9.3 kmh E 8.1 mph13.0 kmh 29.50 in999.0 mb - 0.01 in0.3 mm 0.15 in3.8 mm
03:25 PM 28.2°F-2.1°C 23.4°F-4.8°C 82% 3.5 mph ENE5.6 kmh ENE 5.8 mph9.3 kmh 29.50 in999.0 mb - 0.01 in0.3 mm 0.15 in3.8 mm
03:30 PM 28.2°F-2.1°C 23.4°F-4.8°C 82% 3.5 mph NE5.6 kmh NE 2.3 mph3.7 kmh 29.50 in999.0 mb - 0.01 in0.3 mm 0.15 in3.8 mm
03:35 PM 28.2°F-2.1°C 23.4°F-4.8°C 82% 4.6 mph NNE7.4 kmh NNE 5.8 mph9.3 kmh 29.50 in999.0 mb - 0.01 in0.3 mm 0.15 in3.8 mm
03:40 PM 28.2°F-2.1°C 23.7°F-4.6°C 83% 4.6 mph NE7.4 kmh NE 4.6 mph7.4 kmh 29.50 in999.0 mb - 0.01 in0.3 mm 0.15 in3.8 mm
03:45 PM 28.2°F-2.1°C 23.7°F-4.6°C 83% 5.8 mph ENE9.3 kmh ENE 8.1 mph13.0 kmh 29.49 in998.6 mb - 0.00 in0.0 mm 0.15 in3.8 mm
03:50 PM 28.2°F-2.1°C 23.7°F-4.6°C 83% 4.6 mph NNE7.4 kmh NNE 5.8 mph9.3 kmh 29.49 in998.6 mb - 0.00 in0.0 mm 0.15 in3.8 mm
03:55 PM 28.0°F-2.2°C 23.5°F-4.7°C 83% 4.6 mph E7.4 kmh E 5.8 mph9.3 kmh 29.49 in998.6 mb - 0.00 in0.0 mm 0.15 in3.8 mm
04:00 PM 28.0°F-2.2°C 23.5°F-4.7°C 83% 3.5 mph NE5.6 kmh NE 3.5 mph5.6 kmh 29.49 in998.6 mb - 0.00 in0.0 mm 0.15 in3.8 mm
04:10 PM 28.0°F-2.2°C 23.5°F-4.7°C 83% 4.6 mph ENE7.4 kmh ENE 4.6 mph7.4 kmh 29.49 in998.6 mb - 0.00 in0.0 mm 0.15 in3.8 mm
04:15 PM 28.0°F-2.2°C 23.5°F-4.7°C 83% 6.9 mph NNE11.1 kmh NNE 8.1 mph13.0 kmh 29.49 in998.6 mb - 0.00 in0.0 mm 0.15 in3.8 mm
04:20 PM 28.0°F-2.2°C 23.5°F-4.7°C 83% 4.6 mph NNE7.4 kmh NNE 4.6 mph7.4 kmh 29.49 in998.6 mb - 0.00 in0.0 mm 0.15 in3.8 mm
04:25 PM 28.0°F-2.2°C 23.5°F-4.7°C 83% 5.8 mph NNE9.3 kmh NNE 8.1 mph13.0 kmh 29.49 in998.6 mb - 0.00 in0.0 mm 0.15 in3.8 mm
04:30 PM 28.0°F-2.2°C 23.8°F-4.6°C 84% 5.8 mph NE9.3 kmh NE 8.1 mph13.0 kmh 29.47 in998.0 mb - 0.00 in0.0 mm 0.15 in3.8 mm
04:35 PM 27.9°F-2.3°C 23.4°F-4.8°C 83% 5.8 mph NE9.3 kmh NE 11.5 mph18.5 kmh 29.47 in998.0 mb - 0.00 in0.0 mm 0.15 in3.8 mm
04:40 PM 27.9°F-2.3°C 23.7°F-4.6°C 84% 4.6 mph ENE7.4 kmh ENE 5.8 mph9.3 kmh 29.47 in998.0 mb - 0.00 in0.0 mm 0.15 in3.8 mm
04:45 PM 27.9°F-2.3°C 23.7°F-4.6°C 84% 5.8 mph ENE9.3 kmh ENE 5.8 mph9.3 kmh 29.48 in998.3 mb - 0.00 in0.0 mm 0.15 in3.8 mm
04:50 PM 27.9°F-2.3°C 23.7°F-4.6°C 84% 4.6 mph NE7.4 kmh NE 6.9 mph11.1 kmh 29.48 in998.3 mb - 0.00 in0.0 mm 0.15 in3.8 mm
04:55 PM 27.9°F-2.3°C 23.7°F-4.6°C 84% 4.6 mph NE7.4 kmh NE 5.8 mph9.3 kmh 29.48 in998.3 mb - 0.00 in0.0 mm 0.15 in3.8 mm
05:00 PM 27.8°F-2.3°C 23.6°F-4.7°C 84% 4.6 mph ENE7.4 kmh ENE 4.6 mph7.4 kmh 29.48 in998.3 mb - 0.00 in0.0 mm 0.15 in3.8 mm
05:10 PM 27.7°F-2.4°C 23.5°F-4.7°C 84% 4.6 mph NE7.4 kmh NE 6.9 mph11.1 kmh 29.48 in998.3 mb - 0.00 in0.0 mm 0.15 in3.8 mm
05:15 PM 27.7°F-2.4°C 23.5°F-4.7°C 84% 4.6 mph NNE7.4 kmh NNE 5.8 mph9.3 kmh 29.47 in998.0 mb - 0.00 in0.0 mm 0.15 in3.8 mm
05:20 PM 27.7°F-2.4°C 23.5°F-4.7°C 84% 3.5 mph NE5.6 kmh NE 6.9 mph11.1 kmh 29.47 in998.0 mb - 0.01 in0.3 mm 0.16 in4.1 mm
05:25 PM 27.7°F-2.4°C 23.5°F-4.7°C 84% 3.5 mph ENE5.6 kmh ENE 3.5 mph5.6 kmh 29.47 in998.0 mb - 0.01 in0.3 mm 0.16 in4.1 mm
05:30 PM 27.5°F-2.5°C 23.3°F-4.8°C 84% 4.6 mph NE7.4 kmh NE 6.9 mph11.1 kmh 29.47 in998.0 mb - 0.01 in0.3 mm 0.16 in4.1 mm
05:35 PM 27.5°F-2.5°C 23.3°F-4.8°C 84% 4.6 mph NE7.4 kmh NE 8.1 mph13.0 kmh 29.47 in998.0 mb - 0.01 in0.3 mm 0.16 in4.1 mm
05:40 PM 27.5°F-2.5°C 23.3°F-4.8°C 84% 4.6 mph NE7.4 kmh NE 5.8 mph9.3 kmh 29.47 in998.0 mb - 0.01 in0.3 mm 0.16 in4.1 mm
05:45 PM 27.5°F-2.5°C 23.3°F-4.8°C 84% 3.5 mph ENE5.6 kmh ENE 5.8 mph9.3 kmh 29.46 in997.6 mb - 0.01 in0.3 mm 0.16 in4.1 mm
05:50 PM 27.5°F-2.5°C 23.3°F-4.8°C 84% 4.6 mph NE7.4 kmh NE 3.5 mph5.6 kmh 29.46 in997.6 mb - 0.01 in0.3 mm 0.16 in4.1 mm
05:55 PM 27.5°F-2.5°C 23.3°F-4.8°C 84% 4.6 mph NE7.4 kmh NE 4.6 mph7.4 kmh 29.46 in997.6 mb - 0.01 in0.3 mm 0.16 in4.1 mm
06:00 PM 27.5°F-2.5°C 23.3°F-4.8°C 84% 4.6 mph NNE7.4 kmh NNE 5.8 mph9.3 kmh 29.46 in997.6 mb - 0.01 in0.3 mm 0.16 in4.1 mm
06:10 PM 27.5°F-2.5°C 23.3°F-4.8°C 84% 4.6 mph NE7.4 kmh NE 9.2 mph14.8 kmh 29.46 in997.6 mb - 0.01 in0.3 mm 0.16 in4.1 mm
06:15 PM 27.5°F-2.5°C 23.3°F-4.8°C 84% 3.5 mph NE5.6 kmh NE 3.5 mph5.6 kmh 29.45 in997.3 mb - 0.01 in0.3 mm 0.16 in4.1 mm
06:20 PM 27.3°F-2.6°C 23.1°F-4.9°C 84% 4.6 mph NE7.4 kmh NE 4.6 mph7.4 kmh 29.45 in997.3 mb - 0.00 in0.0 mm 0.16 in4.1 mm
06:25 PM 27.3°F-2.6°C 23.1°F-4.9°C 84% 4.6 mph NNE7.4 kmh NNE 8.1 mph13.0 kmh 29.45 in997.3 mb - 0.00 in0.0 mm 0.16 in4.1 mm
06:30 PM 27.3°F-2.6°C 23.1°F-4.9°C 84% 4.6 mph NNE7.4 kmh NNE 4.6 mph7.4 kmh 29.45 in997.3 mb - 0.00 in0.0 mm 0.16 in4.1 mm
06:35 PM 27.3°F-2.6°C 23.7°F-4.6°C 86% 3.5 mph NE5.6 kmh NE 5.8 mph9.3 kmh 29.45 in997.3 mb - 0.00 in0.0 mm 0.16 in4.1 mm
06:40 PM 27.3°F-2.6°C 23.7°F-4.6°C 86% 4.6 mph NNE7.4 kmh NNE 6.9 mph11.1 kmh 29.45 in997.3 mb - 0.00 in0.0 mm 0.16 in4.1 mm
06:45 PM 27.3°F-2.6°C 23.1°F-4.9°C 84% 4.6 mph ENE7.4 kmh ENE 6.9 mph11.1 kmh 29.44 in997.0 mb - 0.00 in0.0 mm 0.16 in4.1 mm
06:50 PM 27.3°F-2.6°C 23.1°F-4.9°C 84% 3.5 mph NE5.6 kmh NE 4.6 mph7.4 kmh 29.44 in997.0 mb - 0.00 in0.0 mm 0.16 in4.1 mm
06:55 PM 27.3°F-2.6°C 23.1°F-4.9°C 84% 4.6 mph ENE7.4 kmh ENE 5.8 mph9.3 kmh 29.44 in997.0 mb - 0.00 in0.0 mm 0.16 in4.1 mm
07:00 PM 27.3°F-2.6°C 23.1°F-4.9°C 84% 5.8 mph E9.3 kmh E 6.9 mph11.1 kmh 29.44 in997.0 mb - 0.00 in0.0 mm 0.16 in4.1 mm
07:10 PM 27.1°F-2.7°C 22.9°F-5.1°C 84% 5.8 mph ENE9.3 kmh ENE 5.8 mph9.3 kmh 29.44 in997.0 mb - 0.00 in0.0 mm 0.16 in4.1 mm
07:15 PM 27.1°F-2.7°C 22.9°F-5.1°C 84% 4.6 mph NE7.4 kmh NE 8.1 mph13.0 kmh 29.43 in996.6 mb - 0.00 in0.0 mm 0.16 in4.1 mm
07:20 PM 27.1°F-2.7°C 23.5°F-4.7°C 86% 4.6 mph NE7.4 kmh NE 5.8 mph9.3 kmh 29.43 in996.6 mb - 0.00 in0.0 mm 0.16 in4.1 mm
07:25 PM 27.1°F-2.7°C 23.5°F-4.7°C 86% 3.5 mph NNE5.6 kmh NNE 8.1 mph13.0 kmh 29.43 in996.6 mb - 0.00 in0.0 mm 0.16 in4.1 mm
07:30 PM 27.1°F-2.7°C 23.5°F-4.7°C 86% 4.6 mph ENE7.4 kmh ENE 4.6 mph7.4 kmh 29.43 in996.6 mb - 0.00 in0.0 mm 0.16 in4.1 mm
07:35 PM 27.1°F-2.7°C 23.5°F-4.7°C 86% 4.6 mph NNE7.4 kmh NNE 6.9 mph11.1 kmh 29.43 in996.6 mb - 0.00 in0.0 mm 0.16 in4.1 mm
07:40 PM 27.1°F-2.7°C 23.5°F-4.7°C 86% 3.5 mph ENE5.6 kmh ENE 4.6 mph7.4 kmh 29.43 in996.6 mb - 0.01 in0.3 mm 0.17 in4.3 mm
07:45 PM 27.1°F-2.7°C 23.5°F-4.7°C 86% 4.6 mph ENE7.4 kmh ENE 5.8 mph9.3 kmh 29.42 in996.3 mb - 0.01 in0.3 mm 0.17 in4.3 mm
07:50 PM 27.1°F-2.7°C 23.5°F-4.7°C 86% 4.6 mph NE7.4 kmh NE 5.8 mph9.3 kmh 29.42 in996.3 mb - 0.01 in0.3 mm 0.17 in4.3 mm
07:55 PM 27.1°F-2.7°C 23.5°F-4.7°C 86% 3.5 mph NE5.6 kmh NE 4.6 mph7.4 kmh 29.42 in996.3 mb - 0.01 in0.3 mm 0.17 in4.3 mm
08:00 PM 27.1°F-2.7°C 23.5°F-4.7°C 86% 4.6 mph NE7.4 kmh NE 4.6 mph7.4 kmh 29.42 in996.3 mb - 0.01 in0.3 mm 0.17 in4.3 mm
08:10 PM 27.1°F-2.7°C 23.5°F-4.7°C 86% 4.6 mph NNE7.4 kmh NNE 5.8 mph9.3 kmh 29.42 in996.3 mb - 0.01 in0.3 mm 0.17 in4.3 mm
08:15 PM 27.1°F-2.7°C 23.8°F-4.6°C 87% 4.6 mph ENE7.4 kmh ENE 4.6 mph7.4 kmh 29.41 in995.9 mb - 0.01 in0.3 mm 0.17 in4.3 mm
08:20 PM 27.1°F-2.7°C 23.8°F-4.6°C 87% 3.5 mph E5.6 kmh E 3.5 mph5.6 kmh 29.41 in995.9 mb - 0.01 in0.3 mm 0.17 in4.3 mm
08:25 PM 27.1°F-2.7°C 23.8°F-4.6°C 87% 3.5 mph ENE5.6 kmh ENE 3.5 mph5.6 kmh 29.41 in995.9 mb - 0.02 in0.5 mm 0.18 in4.6 mm
08:30 PM 27.1°F-2.7°C 23.8°F-4.6°C 87% 4.6 mph NNE7.4 kmh NNE 5.8 mph9.3 kmh 29.40 in995.6 mb - 0.02 in0.5 mm 0.18 in4.6 mm
08:35 PM 27.1°F-2.7°C 23.8°F-4.6°C 87% 4.6 mph NE7.4 kmh NE 4.6 mph7.4 kmh 29.40 in995.6 mb - 0.02 in0.5 mm 0.18 in4.6 mm
08:40 PM 27.1°F-2.7°C 23.8°F-4.6°C 87% 2.3 mph NE3.7 kmh NE 3.5 mph5.6 kmh 29.40 in995.6 mb - 0.01 in0.3 mm 0.18 in4.6 mm
08:45 PM 27.1°F-2.7°C 23.8°F-4.6°C 87% 3.5 mph ENE5.6 kmh ENE 3.5 mph5.6 kmh 29.40 in995.6 mb - 0.01 in0.3 mm 0.18 in4.6 mm
08:50 PM 27.1°F-2.7°C 23.8°F-4.6°C 87% 3.5 mph ENE5.6 kmh ENE 4.6 mph7.4 kmh 29.40 in995.6 mb - 0.02 in0.5 mm 0.19 in4.8 mm
08:55 PM 27.1°F-2.7°C 23.8°F-4.6°C 87% 3.5 mph NE5.6 kmh NE 3.5 mph5.6 kmh 29.40 in995.6 mb - 0.02 in0.5 mm 0.19 in4.8 mm
09:00 PM 27.1°F-2.7°C 23.8°F-4.6°C 87% 4.6 mph NNE7.4 kmh NNE 4.6 mph7.4 kmh 29.40 in995.6 mb - 0.02 in0.5 mm 0.19 in4.8 mm
09:10 PM 27.1°F-2.7°C 23.8°F-4.6°C 87% 4.6 mph N7.4 kmh N 5.8 mph9.3 kmh 29.40 in995.6 mb - 0.02 in0.5 mm 0.19 in4.8 mm
09:15 PM 27.1°F-2.7°C 23.8°F-4.6°C 87% 3.5 mph NE5.6 kmh NE 4.6 mph7.4 kmh 29.39 in995.3 mb - 0.03 in0.8 mm 0.20 in5.1 mm
09:20 PM 27.1°F-2.7°C 23.8°F-4.6°C 87% 3.5 mph NE5.6 kmh NE 4.6 mph7.4 kmh 29.39 in995.3 mb - 0.03 in0.8 mm 0.20 in5.1 mm
09:25 PM 27.1°F-2.7°C 23.8°F-4.6°C 87% 3.5 mph NNE5.6 kmh NNE 3.5 mph5.6 kmh 29.39 in995.3 mb - 0.02 in0.5 mm 0.20 in5.1 mm
09:30 PM 27.3°F-2.6°C 24.0°F-4.4°C 87% 3.5 mph NNE5.6 kmh NNE 4.6 mph7.4 kmh 29.38 in994.9 mb - 0.02 in0.5 mm 0.20 in5.1 mm
09:35 PM 27.3°F-2.6°C 24.0°F-4.4°C 87% 3.5 mph NE5.6 kmh NE 5.8 mph9.3 kmh 29.38 in994.9 mb - 0.02 in0.5 mm 0.20 in5.1 mm
09:40 PM 27.3°F-2.6°C 24.0°F-4.4°C 87% 3.5 mph ENE5.6 kmh ENE 4.6 mph7.4 kmh 29.38 in994.9 mb - 0.02 in0.5 mm 0.20 in5.1 mm
09:45 PM 27.3°F-2.6°C 24.0°F-4.4°C 87% 4.6 mph NE7.4 kmh NE 3.5 mph5.6 kmh 29.37 in994.6 mb - 0.02 in0.5 mm 0.20 in5.1 mm
09:50 PM 27.3°F-2.6°C 24.0°F-4.4°C 87% 3.5 mph NE5.6 kmh NE 4.6 mph7.4 kmh 29.37 in994.6 mb - 0.01 in0.3 mm 0.20 in5.1 mm
09:55 PM 27.3°F-2.6°C 24.0°F-4.4°C 87% 4.6 mph ENE7.4 kmh ENE 5.8 mph9.3 kmh 29.37 in994.6 mb - 0.01 in0.3 mm 0.20 in5.1 mm
10:00 PM 27.3°F-2.6°C 24.0°F-4.4°C 87% 3.5 mph NE5.6 kmh NE 3.5 mph5.6 kmh 29.37 in994.6 mb - 0.01 in0.3 mm 0.20 in5.1 mm
10:10 PM 27.3°F-2.6°C 24.0°F-4.4°C 87% 4.6 mph ENE7.4 kmh ENE 5.8 mph9.3 kmh 29.37 in994.6 mb - 0.02 in0.5 mm 0.21 in5.3 mm
10:15 PM 27.3°F-2.6°C 24.0°F-4.4°C 87% 3.5 mph ENE5.6 kmh ENE 3.5 mph5.6 kmh 29.37 in994.6 mb - 0.01 in0.3 mm 0.21 in5.3 mm
10:20 PM 27.3°F-2.6°C 24.0°F-4.4°C 87% 3.5 mph NE5.6 kmh NE 3.5 mph5.6 kmh 29.37 in994.6 mb - 0.01 in0.3 mm 0.21 in5.3 mm
10:25 PM 27.3°F-2.6°C 24.0°F-4.4°C 87% 3.5 mph NNE5.6 kmh NNE 5.8 mph9.3 kmh 29.37 in994.6 mb - 0.01 in0.3 mm 0.21 in5.3 mm
10:30 PM 27.3°F-2.6°C 24.0°F-4.4°C 87% 3.5 mph NE5.6 kmh NE 4.6 mph7.4 kmh 29.35 in993.9 mb - 0.01 in0.3 mm 0.21 in5.3 mm
10:35 PM 27.3°F-2.6°C 24.0°F-4.4°C 87% 3.5 mph NE5.6 kmh NE 3.5 mph5.6 kmh 29.35 in993.9 mb - 0.01 in0.3 mm 0.21 in5.3 mm
10:40 PM 27.3°F-2.6°C 24.0°F-4.4°C 87% 2.3 mph NE3.7 kmh NE 3.5 mph5.6 kmh 29.35 in993.9 mb - 0.01 in0.3 mm 0.21 in5.3 mm
10:45 PM 27.3°F-2.6°C 24.0°F-4.4°C 87% 4.6 mph NE7.4 kmh NE 5.8 mph9.3 kmh 29.35 in993.9 mb - 0.01 in0.3 mm 0.21 in5.3 mm
10:50 PM 27.3°F-2.6°C 24.0°F-4.4°C 87% 4.6 mph NNE7.4 kmh NNE 5.8 mph9.3 kmh 29.35 in993.9 mb - 0.01 in0.3 mm 0.21 in5.3 mm
10:55 PM 27.1°F-2.7°C 23.8°F-4.6°C 87% 4.6 mph NNE7.4 kmh NNE 6.9 mph11.1 kmh 29.35 in993.9 mb - 0.01 in0.3 mm 0.21 in5.3 mm
11:00 PM 27.1°F-2.7°C 23.8°F-4.6°C 87% 3.5 mph N5.6 kmh N 5.8 mph9.3 kmh 29.35 in993.9 mb - 0.01 in0.3 mm 0.21 in5.3 mm
11:10 PM 27.1°F-2.7°C 23.8°F-4.6°C 87% 3.5 mph NE5.6 kmh NE 4.6 mph7.4 kmh 29.35 in993.9 mb - 0.01 in0.3 mm 0.21 in5.3 mm
11:15 PM 27.1°F-2.7°C 23.8°F-4.6°C 87% 3.5 mph ENE5.6 kmh ENE 3.5 mph5.6 kmh 29.34 in993.6 mb - 0.00 in0.0 mm 0.21 in5.3 mm
11:20 PM 27.1°F-2.7°C 23.8°F-4.6°C 87% 4.6 mph NNE7.4 kmh NNE 5.8 mph9.3 kmh 29.34 in993.6 mb - 0.00 in0.0 mm 0.21 in5.3 mm
11:25 PM 27.1°F-2.7°C 23.8°F-4.6°C 87% 3.5 mph NE5.6 kmh NE 5.8 mph9.3 kmh 29.34 in993.6 mb - 0.00 in0.0 mm 0.21 in5.3 mm
11:30 PM 27.1°F-2.7°C 23.8°F-4.6°C 87% 4.6 mph NNE7.4 kmh NNE 5.8 mph9.3 kmh 29.34 in993.6 mb - 0.00 in0.0 mm 0.21 in5.3 mm
11:35 PM 27.1°F-2.7°C 23.8°F-4.6°C 87% 4.6 mph NNE7.4 kmh NNE 3.5 mph5.6 kmh 29.34 in993.6 mb - 0.00 in0.0 mm 0.21 in5.3 mm
11:40 PM 27.1°F-2.7°C 23.5°F-4.7°C 86% 4.6 mph ENE7.4 kmh ENE 5.8 mph9.3 kmh 29.34 in993.6 mb - 0.00 in0.0 mm 0.21 in5.3 mm
11:45 PM 27.1°F-2.7°C 23.5°F-4.7°C 86% 3.5 mph NNE5.6 kmh NNE 3.5 mph5.6 kmh 29.34 in993.6 mb - 0.00 in0.0 mm 0.21 in5.3 mm
11:50 PM 27.1°F-2.7°C 23.5°F-4.7°C 86% 3.5 mph NE5.6 kmh NE 9.2 mph14.8 kmh 29.34 in993.6 mb - 0.00 in0.0 mm 0.21 in5.3 mm
11:55 PM 27.1°F-2.7°C 23.5°F-4.7°C 86% 3.5 mph NE5.6 kmh NE 4.6 mph7.4 kmh 29.34 in993.6 mb - 0.00 in0.0 mm 0.21 in5.3 mm